createdAt,value
2022-12-24T00:02:09.335Z,9.33
2022-12-24T00:05:12.024Z,9.23
2022-12-24T00:08:14.634Z,10.10
2022-12-24T00:11:17.354Z,9.80
2022-12-24T00:14:19.968Z,9.70
2022-12-24T00:17:23.969Z,10.07
2022-12-24T00:20:26.575Z,9.87
2022-12-24T00:23:29.176Z,9.63
2022-12-24T00:26:31.741Z,9.50
2022-12-24T00:29:35.067Z,10.03
2022-12-24T00:32:39.011Z,10.03
2022-12-24T00:35:42.110Z,9.50
2022-12-24T00:38:45.383Z,9.77
2022-12-24T00:41:48.007Z,9.97
2022-12-24T00:44:50.621Z,10.37
2022-12-24T00:47:54.651Z,9.37
2022-12-24T00:50:57.266Z,9.40
2022-12-24T00:54:00.205Z,10.07
2022-12-24T00:57:02.793Z,10.40
2022-12-24T01:00:06.206Z,9.50
2022-12-24T01:03:10.267Z,10.00
2022-12-24T01:06:15.179Z,10.90
2022-12-24T01:09:17.761Z,10.03
2022-12-24T01:12:20.477Z,10.40
2022-12-24T01:15:23.097Z,10.50
2022-12-24T01:18:27.137Z,11.17
2022-12-24T01:21:29.725Z,11.07
2022-12-24T01:24:32.321Z,11.10
2022-12-24T01:27:34.902Z,11.23
2022-12-24T01:30:37.457Z,10.87
2022-12-24T01:33:41.479Z,11.53
2022-12-24T01:36:44.097Z,11.10
2022-12-24T01:39:46.708Z,11.70
2022-12-24T01:43:08.336Z,11.10
2022-12-24T01:46:17.473Z,11.70
2022-12-24T01:49:21.946Z,11.37
2022-12-24T01:52:29.378Z,12.13
2022-12-24T01:55:32.010Z,11.93
2022-12-24T01:58:36.492Z,12.37
2022-12-24T02:01:40.572Z,11.60
2022-12-24T02:04:51.939Z,11.87
2022-12-24T02:07:54.588Z,12.27
2022-12-24T02:10:57.158Z,13.20
2022-12-24T02:14:02.569Z,12.90
2022-12-24T02:17:18.850Z,12.47
2022-12-24T02:21:01.413Z,12.23
2022-12-24T02:24:26.943Z,12.17
2022-12-24T02:27:37.831Z,11.23
2022-12-24T02:30:46.501Z,11.70
2022-12-24T02:33:55.873Z,11.77
2022-12-24T02:37:03.230Z,9.87
2022-12-24T02:40:16.282Z,10.63
2022-12-24T02:43:24.382Z,10.63
2022-12-24T02:46:31.337Z,11.23
2022-12-24T02:49:33.923Z,10.17
2022-12-24T02:52:38.535Z,10.40
2022-12-24T02:56:00.570Z,9.73
2022-12-24T02:59:29.408Z,8.67
2022-12-24T03:02:51.265Z,9.70
2022-12-24T03:06:01.920Z,9.07
2022-12-24T03:09:14.287Z,9.50
2022-12-24T03:12:22.449Z,8.80
2022-12-24T03:15:26.747Z,9.40
2022-12-24T03:18:31.912Z,9.43
2022-12-24T03:21:37.432Z,9.07
2022-12-24T03:24:40.027Z,7.87
2022-12-24T03:27:42.983Z,8.57
2022-12-24T03:30:48.634Z,8.53
2022-12-24T03:33:53.044Z,8.33
2022-12-24T03:36:55.743Z,8.27
2022-12-24T03:39:58.575Z,8.10
2022-12-24T03:43:01.164Z,7.70
2022-12-24T03:46:08.176Z,8.73
2022-12-24T03:49:12.338Z,8.17
2022-12-24T03:52:15.282Z,8.13
2022-12-24T03:55:18.206Z,7.20
2022-12-24T03:58:20.846Z,7.90
2022-12-24T04:01:23.685Z,7.93
2022-12-24T04:04:27.945Z,7.50
2022-12-24T04:07:30.620Z,8.30
2022-12-24T04:10:33.193Z,7.50
2022-12-24T04:13:36.087Z,7.03
2022-12-24T04:16:38.746Z,7.67
2022-12-24T04:19:42.754Z,8.00
2022-12-24T04:22:45.369Z,7.57
2022-12-24T04:25:48.299Z,7.23
2022-12-24T04:28:50.880Z,7.47
2022-12-24T04:31:53.597Z,8.10
2022-12-24T04:34:57.618Z,7.03
2022-12-24T04:38:00.567Z,7.53
2022-12-24T04:41:05.556Z,7.60
2022-12-24T04:44:08.143Z,7.80
2022-12-24T04:47:10.859Z,8.33
2022-12-24T04:50:14.831Z,7.97
2022-12-24T04:53:17.420Z,7.93
2022-12-24T04:56:21.851Z,8.13
2022-12-24T04:59:24.510Z,8.03
2022-12-24T05:02:27.318Z,8.13
2022-12-24T05:05:31.374Z,7.67
2022-12-24T05:08:34.487Z,7.77
2022-12-24T05:11:37.058Z,8.20
2022-12-24T05:14:40.475Z,7.63
2022-12-24T05:17:43.059Z,8.07
2022-12-24T05:20:47.623Z,7.73
2022-12-24T05:24:07.997Z,7.23
2022-12-24T05:27:10.567Z,7.80
2022-12-24T05:30:13.195Z,7.80
2022-12-24T05:33:15.792Z,7.90
2022-12-24T05:36:19.779Z,7.53
2022-12-24T05:39:22.533Z,7.97
2022-12-24T05:42:25.182Z,8.17
2022-12-24T05:45:27.766Z,6.67
2022-12-24T05:48:30.576Z,7.40
2022-12-24T05:51:34.550Z,7.53
2022-12-24T05:54:37.188Z,6.90
2022-12-24T05:57:41.372Z,6.87
2022-12-24T06:00:44.113Z,6.60
2022-12-24T06:03:46.810Z,6.50
2022-12-24T06:06:50.783Z,6.20
2022-12-24T06:09:53.360Z,5.70
2022-12-24T06:12:56.818Z,6.87
2022-12-24T06:16:01.153Z,6.13
2022-12-24T06:19:03.896Z,5.27
2022-12-24T06:22:07.860Z,5.73
2022-12-24T06:25:10.807Z,6.10
2022-12-24T06:28:13.644Z,5.50
2022-12-24T06:31:18.887Z,5.63
2022-12-24T06:34:21.647Z,5.43
2022-12-24T06:37:25.603Z,5.47
2022-12-24T06:40:28.595Z,5.70
2022-12-24T06:43:31.189Z,5.47
2022-12-24T06:46:33.818Z,5.03
2022-12-24T06:49:36.439Z,5.07
2022-12-24T06:52:40.434Z,4.97
2022-12-24T06:55:43.045Z,5.23
2022-12-24T06:58:46.043Z,4.83
2022-12-24T07:01:48.772Z,4.60
2022-12-24T07:04:51.569Z,5.33
2022-12-24T07:07:55.542Z,4.40
2022-12-24T07:11:00.174Z,5.40
2022-12-24T07:14:02.763Z,4.70
2022-12-24T07:17:05.400Z,4.50
2022-12-24T07:20:13.285Z,4.33
2022-12-24T07:23:17.441Z,4.30
2022-12-24T07:26:20.097Z,4.10
2022-12-24T07:29:22.960Z,4.10
2022-12-24T07:32:25.544Z,4.30
2022-12-24T07:35:28.215Z,4.40
2022-12-24T07:38:32.922Z,4.40
2022-12-24T07:41:41.561Z,4.40
2022-12-24T07:44:44.414Z,3.73
2022-12-24T07:47:47.007Z,4.17
2022-12-24T07:50:50.177Z,3.83
2022-12-24T07:53:54.101Z,3.73
2022-12-24T07:56:57.802Z,3.93
2022-12-24T08:00:00.399Z,4.40
2022-12-24T08:03:03.047Z,4.10
2022-12-24T08:06:06.204Z,3.93
2022-12-24T08:09:10.181Z,4.10
2022-12-24T08:12:12.810Z,4.30
2022-12-24T08:15:15.475Z,3.83
2022-12-24T08:18:18.035Z,3.93
2022-12-24T08:21:20.679Z,3.73
2022-12-24T08:24:24.677Z,3.73
2022-12-24T08:27:27.238Z,3.90
2022-12-24T08:30:29.828Z,3.93
2022-12-24T08:33:33.100Z,4.03
2022-12-24T08:36:36.300Z,3.87
2022-12-24T08:39:40.252Z,3.80
2022-12-24T08:42:42.889Z,4.23
2022-12-24T08:45:46.571Z,4.40
2022-12-24T08:48:49.320Z,4.20
2022-12-24T08:51:52.466Z,4.00
2022-12-24T08:54:56.391Z,4.00
2022-12-24T08:57:59.042Z,3.90
2022-12-24T09:01:02.270Z,3.43
2022-12-24T09:04:05.000Z,3.57
2022-12-24T09:07:07.667Z,3.63
2022-12-24T09:10:13.022Z,3.77
2022-12-24T09:13:15.616Z,3.47
2022-12-24T09:16:18.357Z,3.53
2022-12-24T09:19:21.018Z,3.33
2022-12-24T09:22:23.743Z,3.50
2022-12-24T09:25:27.658Z,3.83
2022-12-24T09:28:30.235Z,3.73
2022-12-24T09:31:32.838Z,3.63
2022-12-24T09:34:35.424Z,3.70
2022-12-24T09:37:38.682Z,3.83
2022-12-24T09:40:42.694Z,3.70
2022-12-24T09:43:50.954Z,3.80
2022-12-24T09:46:54.948Z,4.43
2022-12-24T09:50:01.976Z,3.87
2022-12-24T09:53:15.001Z,4.53
2022-12-24T09:56:23.811Z,4.60
2022-12-24T09:59:36.422Z,4.50
2022-12-24T10:02:39.124Z,4.87
2022-12-24T10:05:47.991Z,4.50
2022-12-24T10:09:04.106Z,4.90
2022-12-24T10:12:13.023Z,5.17
2022-12-24T10:15:27.091Z,5.07
2022-12-24T10:18:47.267Z,6.20
2022-12-24T10:22:08.931Z,5.53
2022-12-24T10:25:20.479Z,5.97
2022-12-24T10:28:30.936Z,5.83
2022-12-24T10:31:42.491Z,5.93
2022-12-24T10:34:47.211Z,5.93
2022-12-24T10:37:51.090Z,6.20
2022-12-24T10:40:57.105Z,6.40
2022-12-24T10:44:01.321Z,8.87
2022-12-24T10:47:06.160Z,29.97
2022-12-24T10:50:17.847Z,9.30
2022-12-24T10:53:26.325Z,8.10
2022-12-24T10:56:28.980Z,10.57
2022-12-24T10:59:42.467Z,7.47
2022-12-24T11:02:45.241Z,6.30
2022-12-24T11:06:00.150Z,6.40
2022-12-24T11:09:21.365Z,5.60
2022-12-24T11:12:26.610Z,5.67
2022-12-24T11:15:34.389Z,5.57
2022-12-24T11:18:42.467Z,5.33
2022-12-24T11:21:47.834Z,5.37
2022-12-24T11:24:59.938Z,5.40
2022-12-24T11:28:12.838Z,7.10
2022-12-24T11:31:21.907Z,5.10
2022-12-24T11:34:28.105Z,6.57
2022-12-24T11:37:30.732Z,6.13
2022-12-24T11:40:36.753Z,5.60
2022-12-24T11:43:46.074Z,6.10
2022-12-24T11:46:52.895Z,6.33
2022-12-24T11:50:12.895Z,7.20
2022-12-24T11:53:22.140Z,6.60
2022-12-24T11:56:36.047Z,6.80
2022-12-24T11:59:44.076Z,6.47
2022-12-24T12:02:52.465Z,6.80
2022-12-24T12:05:56.832Z,6.27
2022-12-24T12:09:03.865Z,7.43
2022-12-24T12:12:10.564Z,7.90
2022-12-24T12:15:17.538Z,7.23
2022-12-24T12:18:25.530Z,7.30
2022-12-24T12:21:34.127Z,6.77
2022-12-24T12:24:40.781Z,6.97
2022-12-24T12:27:45.811Z,6.30
2022-12-24T12:30:56.553Z,7.00
2022-12-24T12:34:06.521Z,6.90
2022-12-24T12:37:15.494Z,7.17
2022-12-24T12:40:19.474Z,7.03
2022-12-24T12:43:37.784Z,6.97
2022-12-24T12:46:57.553Z,7.73
2022-12-24T12:50:11.315Z,7.70
2022-12-24T12:53:37.180Z,8.37
2022-12-24T12:56:45.871Z,7.90
2022-12-24T12:59:53.131Z,8.27
2022-12-24T13:03:42.281Z,9.53
2022-12-24T13:07:15.651Z,8.87
2022-12-24T13:10:38.978Z,8.43
2022-12-24T13:13:53.996Z,10.13
2022-12-24T13:17:15.907Z,9.13
2022-12-24T13:20:23.429Z,9.83
2022-12-24T13:23:28.849Z,9.70
2022-12-24T13:26:31.462Z,8.33
2022-12-24T13:29:53.497Z,8.17
2022-12-24T13:32:56.374Z,9.00
2022-12-24T13:36:01.106Z,10.23
2022-12-24T13:39:05.070Z,13.37
2022-12-24T13:42:08.027Z,14.20
2022-12-24T13:45:44.666Z,11.13
2022-12-24T13:48:47.447Z,9.77
2022-12-24T13:51:51.007Z,10.40
2022-12-24T13:55:08.730Z,9.37
2022-12-24T13:58:19.678Z,8.90
2022-12-24T14:01:33.824Z,10.30
2022-12-24T14:04:42.160Z,9.07
2022-12-24T14:07:47.483Z,9.07
2022-12-24T14:11:04.032Z,9.80
2022-12-24T14:14:12.842Z,10.40
2022-12-24T14:17:23.404Z,9.43
2022-12-24T14:20:26.308Z,9.93
2022-12-24T14:23:37.475Z,9.57
2022-12-24T14:26:48.080Z,8.50
2022-12-24T14:29:54.377Z,8.83
2022-12-24T14:32:58.376Z,8.77
2022-12-24T14:36:02.585Z,8.70
2022-12-24T14:39:07.839Z,8.70
2022-12-24T14:42:26.813Z,9.00
2022-12-24T14:45:34.942Z,9.33
2022-12-24T14:48:44.090Z,9.40
2022-12-24T14:51:53.971Z,9.77
2022-12-24T14:54:56.531Z,9.37
2022-12-24T14:58:20.834Z,8.90
2022-12-24T15:01:26.343Z,9.33
2022-12-24T15:04:29.003Z,10.50
2022-12-24T15:07:33.084Z,15.07
2022-12-24T15:10:38.351Z,15.50
2022-12-24T15:13:44.340Z,15.60
2022-12-24T15:16:54.890Z,15.37
2022-12-24T15:19:59.148Z,13.33
2022-12-24T15:23:01.738Z,10.30
2022-12-24T15:26:10.404Z,12.23
2022-12-24T15:29:24.688Z,12.30
2022-12-24T15:32:27.603Z,11.00
2022-12-24T15:35:35.203Z,10.40
2022-12-24T15:38:40.615Z,12.20
2022-12-24T15:41:59.306Z,24.70
2022-12-24T15:45:06.518Z,16.10
2022-12-24T15:48:11.825Z,17.10
2022-12-24T15:51:15.065Z,17.63
2022-12-24T15:54:22.529Z,14.77
2022-12-24T15:57:27.570Z,13.37
2022-12-24T16:00:32.413Z,10.17
2022-12-24T16:03:36.930Z,11.03
2022-12-24T16:06:54.167Z,9.80
2022-12-24T16:10:14.749Z,10.23
2022-12-24T16:13:20.293Z,11.37
2022-12-24T16:16:34.145Z,10.10
2022-12-24T16:19:40.461Z,10.73
2022-12-24T16:22:46.950Z,10.60
2022-12-24T16:25:50.291Z,9.63
2022-12-24T16:28:52.885Z,9.07
2022-12-24T16:31:58.092Z,10.63
2022-12-24T16:35:02.604Z,9.03
2022-12-24T16:38:06.097Z,9.67
2022-12-24T16:41:08.683Z,10.43
2022-12-24T16:44:10.354Z,13.33
2022-12-24T16:47:18.342Z,10.00
2022-12-24T16:50:20.932Z,9.17
2022-12-24T16:53:23.953Z,9.40
2022-12-24T16:56:26.538Z,9.50
2022-12-24T16:59:29.155Z,10.40
2022-12-24T17:02:33.232Z,10.70
2022-12-24T17:05:38.944Z,11.07
2022-12-24T17:08:41.597Z,10.23
2022-12-24T17:11:44.206Z,10.60
2022-12-24T17:14:46.808Z,11.80
2022-12-24T17:17:50.798Z,12.23
2022-12-24T17:21:01.218Z,13.10
2022-12-24T17:24:04.059Z,11.60
2022-12-24T17:27:06.639Z,14.03
2022-12-24T17:30:10.304Z,12.23
2022-12-24T17:33:15.047Z,11.50
2022-12-24T17:36:17.846Z,11.33
2022-12-24T17:39:27.271Z,11.30
2022-12-24T17:42:30.394Z,11.87
2022-12-24T17:45:32.991Z,9.80
2022-12-24T17:48:37.235Z,8.87
2022-12-24T17:51:45.042Z,9.07
2022-12-24T17:54:48.373Z,9.87
2022-12-24T17:57:51.051Z,10.40
2022-12-24T18:00:55.144Z,12.17
2022-12-24T18:04:01.792Z,12.83
2022-12-24T18:07:04.466Z,11.30
2022-12-24T18:10:08.074Z,9.63
2022-12-24T18:13:17.241Z,9.00
2022-12-24T18:16:24.174Z,8.87
2022-12-24T18:19:28.247Z,9.07
2022-12-24T18:22:30.864Z,8.97
2022-12-24T18:25:33.947Z,8.87
2022-12-24T18:28:36.580Z,8.30
2022-12-24T18:31:39.361Z,8.40
2022-12-24T18:34:43.377Z,8.60
2022-12-24T18:37:45.972Z,9.70
2022-12-24T18:40:48.672Z,9.50
2022-12-24T18:43:51.613Z,9.37
2022-12-24T18:46:54.445Z,8.97
2022-12-24T18:49:58.440Z,8.40
2022-12-24T18:53:01.159Z,9.43
2022-12-24T18:56:05.549Z,8.20
2022-12-24T18:59:08.131Z,8.27
2022-12-24T19:02:11.243Z,8.30
2022-12-24T19:05:15.816Z,7.67
2022-12-24T19:08:55.985Z,7.17
2022-12-24T19:11:42.876Z,6.83
2022-12-24T19:14:45.579Z,8.00
2022-12-24T19:17:48.230Z,6.33
2022-12-24T19:20:52.430Z,6.27
2022-12-24T19:23:55.094Z,7.37
2022-12-24T19:26:57.723Z,6.13
2022-12-24T19:30:00.316Z,6.07
2022-12-24T19:33:02.908Z,6.77
2022-12-24T19:36:12.134Z,5.53
2022-12-24T19:39:15.219Z,6.23
2022-12-24T19:42:17.918Z,4.83
2022-12-24T19:45:21.404Z,5.20
2022-12-24T19:48:23.978Z,6.90
2022-12-24T19:51:30.187Z,6.57
2022-12-24T19:54:32.767Z,6.47
2022-12-24T19:57:35.383Z,7.10
2022-12-24T20:00:37.974Z,6.07
2022-12-24T20:03:40.663Z,6.83
2022-12-24T20:06:44.684Z,6.97
2022-12-24T20:09:47.345Z,7.00
2022-12-24T20:12:49.938Z,6.17
2022-12-24T20:15:53.702Z,6.77
2022-12-24T20:18:57.970Z,6.50
2022-12-24T20:22:02.151Z,8.23
2022-12-24T20:25:05.049Z,8.60
2022-12-24T20:28:07.640Z,7.63
2022-12-24T20:31:12.603Z,12.03
2022-12-24T20:34:15.307Z,11.17
2022-12-24T20:37:19.245Z,10.73
2022-12-24T20:40:21.889Z,9.63
2022-12-24T20:43:25.332Z,7.43
2022-12-24T20:46:30.983Z,6.37
2022-12-24T20:49:33.720Z,5.80
2022-12-24T20:52:37.674Z,5.47
2022-12-24T20:55:40.253Z,6.43
2022-12-24T20:58:43.015Z,6.07
2022-12-24T21:01:45.786Z,5.77
2022-12-24T21:04:48.507Z,6.40
2022-12-24T21:07:52.490Z,5.10
2022-12-24T21:11:15.107Z,5.20
2022-12-24T21:14:19.581Z,6.47
2022-12-24T21:17:22.229Z,5.70
2022-12-24T21:20:29.847Z,6.80
2022-12-24T21:23:33.819Z,6.87
2022-12-24T21:26:36.539Z,5.90
2022-12-24T21:29:39.133Z,6.77
2022-12-24T21:32:41.758Z,6.57
2022-12-24T21:35:44.603Z,6.60
2022-12-24T21:38:48.895Z,6.37
2022-12-24T21:41:51.503Z,6.90
2022-12-24T21:44:54.092Z,6.40
2022-12-24T21:47:56.692Z,6.20
2022-12-24T21:50:58.420Z,6.10
2022-12-24T21:54:20.208Z,5.87
2022-12-24T21:57:40.591Z,6.07
2022-12-24T22:00:43.187Z,6.57
2022-12-24T22:03:48.555Z,5.63
2022-12-24T22:07:09.069Z,6.23
2022-12-24T22:10:31.975Z,5.80
2022-12-24T22:13:34.605Z,5.93
2022-12-24T22:16:37.246Z,5.87
2022-12-24T22:19:39.879Z,6.10
2022-12-24T22:22:42.473Z,7.70
2022-12-24T22:25:47.064Z,6.33
2022-12-24T22:28:49.667Z,6.40
2022-12-24T22:31:52.263Z,6.73
2022-12-24T22:34:54.857Z,7.57
2022-12-24T22:38:00.103Z,7.37
2022-12-24T22:41:09.112Z,7.37
2022-12-24T22:44:11.797Z,7.13
2022-12-24T22:47:14.359Z,6.67
2022-12-24T22:50:17.269Z,7.60
2022-12-24T22:53:19.839Z,6.47
2022-12-24T22:56:24.381Z,5.93
2022-12-24T22:59:27.012Z,6.10
2022-12-24T23:02:29.779Z,6.00
2022-12-24T23:05:32.487Z,6.73
2022-12-24T23:08:36.675Z,5.90
2022-12-24T23:11:41.785Z,5.90
2022-12-24T23:14:58.344Z,6.77
2022-12-24T23:18:00.960Z,6.37
2022-12-24T23:21:06.329Z,6.27
2022-12-24T23:24:10.988Z,7.47
2022-12-24T23:27:14.923Z,6.80
2022-12-24T23:30:17.725Z,6.77
2022-12-24T23:33:20.331Z,7.13
2022-12-24T23:36:23.039Z,7.63
2022-12-24T23:39:25.619Z,7.60
2022-12-24T23:42:29.646Z,7.30
2022-12-24T23:45:32.209Z,7.40
2022-12-24T23:48:34.795Z,6.57
2022-12-24T23:51:37.420Z,6.60
2022-12-24T23:54:40.013Z,6.33
2022-12-24T23:57:44.005Z,6.70
